sensor_id;sensor_type;location;lat;lon;timestamp;temperature;humidity
674;DHT22;319;48.764;9.174;2023-01-26T00:02:22;4.10;99.90
674;DHT22;319;48.764;9.174;2023-01-26T00:04:49;4.10;99.90
674;DHT22;319;48.764;9.174;2023-01-26T00:07:16;4.10;99.90
674;DHT22;319;48.764;9.174;2023-01-26T00:09:43;4.00;99.90
674;DHT22;319;48.764;9.174;2023-01-26T00:12:09;4.10;99.90
674;DHT22;319;48.764;9.174;2023-01-26T00:14:36;4.20;99.90
674;DHT22;319;48.764;9.174;2023-01-26T00:17:20;4.20;99.90
674;DHT22;319;48.764;9.174;2023-01-26T00:19:56;4.20;99.90
674;DHT22;319;48.764;9.174;2023-01-26T00:22:23;4.30;99.90
674;DHT22;319;48.764;9.174;2023-01-26T00:24:50;4.30;99.90
674;DHT22;319;48.764;9.174;2023-01-26T00:27:17;4.20;99.90
674;DHT22;319;48.764;9.174;2023-01-26T00:29:44;4.20;99.90
674;DHT22;319;48.764;9.174;2023-01-26T00:32:11;4.10;99.90
674;DHT22;319;48.764;9.174;2023-01-26T00:34:37;4.10;99.90
674;DHT22;319;48.764;9.174;2023-01-26T00:37:05;4.00;99.90
674;DHT22;319;48.764;9.174;2023-01-26T00:39:32;4.00;99.90
674;DHT22;319;48.764;9.174;2023-01-26T00:41:59;4.00;99.90
674;DHT22;319;48.764;9.174;2023-01-26T00:44:41;4.00;99.90
674;DHT22;319;48.764;9.174;2023-01-26T00:47:09;4.10;99.90
674;DHT22;319;48.764;9.174;2023-01-26T00:49:36;4.10;99.90
674;DHT22;319;48.764;9.174;2023-01-26T00:52:03;4.20;99.90
674;DHT22;319;48.764;9.174;2023-01-26T00:54:31;4.20;99.90
674;DHT22;319;48.764;9.174;2023-01-26T00:56:58;4.20;99.90
674;DHT22;319;48.764;9.174;2023-01-26T00:59:25;4.10;99.90
674;DHT22;319;48.764;9.174;2023-01-26T01:01:52;4.00;99.90
674;DHT22;319;48.764;9.174;2023-01-26T01:04:19;4.10;99.90
674;DHT22;319;48.764;9.174;2023-01-26T01:06:46;4.10;99.90
674;DHT22;319;48.764;9.174;2023-01-26T01:09:13;4.20;99.90
674;DHT22;319;48.764;9.174;2023-01-26T01:11:42;4.20;99.90
674;DHT22;319;48.764;9.174;2023-01-26T01:14:11;4.10;99.90
674;DHT22;319;48.764;9.174;2023-01-26T01:16:38;4.20;99.90
674;DHT22;319;48.764;9.174;2023-01-26T01:19:05;4.20;99.90
674;DHT22;319;48.764;9.174;2023-01-26T01:21:32;4.20;99.90
674;DHT22;319;48.764;9.174;2023-01-26T01:24:01;4.20;99.90
674;DHT22;319;48.764;9.174;2023-01-26T01:26:28;4.10;99.90
674;DHT22;319;48.764;9.174;2023-01-26T01:28:56;4.10;99.90
674;DHT22;319;48.764;9.174;2023-01-26T01:31:23;4.10;99.90
674;DHT22;319;48.764;9.174;2023-01-26T01:33:51;4.10;99.90
674;DHT22;319;48.764;9.174;2023-01-26T01:36:18;4.10;99.90
674;DHT22;319;48.764;9.174;2023-01-26T01:38:46;4.00;99.90
674;DHT22;319;48.764;9.174;2023-01-26T01:41:14;3.90;99.90
674;DHT22;319;48.764;9.174;2023-01-26T01:43:41;4.10;99.90
674;DHT22;319;48.764;9.174;2023-01-26T01:46:15;4.00;99.90
674;DHT22;319;48.764;9.174;2023-01-26T01:48:48;4.00;99.90
674;DHT22;319;48.764;9.174;2023-01-26T01:51:19;3.90;99.90
674;DHT22;319;48.764;9.174;2023-01-26T01:53:48;3.70;99.90
674;DHT22;319;48.764;9.174;2023-01-26T01:56:19;3.90;99.90
674;DHT22;319;48.764;9.174;2023-01-26T01:58:51;3.90;99.90
674;DHT22;319;48.764;9.174;2023-01-26T02:01:20;3.90;99.90
674;DHT22;319;48.764;9.174;2023-01-26T02:03:49;4.00;99.90
674;DHT22;319;48.764;9.174;2023-01-26T02:06:20;3.90;99.90
674;DHT22;319;48.764;9.174;2023-01-26T02:08:50;3.90;99.90
674;DHT22;319;48.764;9.174;2023-01-26T02:11:21;3.70;99.90
674;DHT22;319;48.764;9.174;2023-01-26T02:13:50;3.70;99.90
674;DHT22;319;48.764;9.174;2023-01-26T02:16:19;3.70;99.90
674;DHT22;319;48.764;9.174;2023-01-26T02:18:46;3.70;99.90
674;DHT22;319;48.764;9.174;2023-01-26T02:21:16;3.80;99.90
674;DHT22;319;48.764;9.174;2023-01-26T02:24:01;3.70;99.90
674;DHT22;319;48.764;9.174;2023-01-26T02:26:32;3.70;99.90
674;DHT22;319;48.764;9.174;2023-01-26T02:29:00;3.70;99.90
674;DHT22;319;48.764;9.174;2023-01-26T02:31:28;3.70;99.90
674;DHT22;319;48.764;9.174;2023-01-26T02:33:56;3.70;99.90
674;DHT22;319;48.764;9.174;2023-01-26T02:36:24;3.60;99.90
674;DHT22;319;48.764;9.174;2023-01-26T02:39:14;3.60;99.90
674;DHT22;319;48.764;9.174;2023-01-26T02:41:44;3.60;99.90
674;DHT22;319;48.764;9.174;2023-01-26T02:44:29;3.50;99.90
674;DHT22;319;48.764;9.174;2023-01-26T02:46:57;3.50;99.90
674;DHT22;319;48.764;9.174;2023-01-26T02:49:24;3.40;99.90
674;DHT22;319;48.764;9.174;2023-01-26T02:52:08;3.30;99.90
674;DHT22;319;48.764;9.174;2023-01-26T02:54:35;3.20;99.90
674;DHT22;319;48.764;9.174;2023-01-26T02:57:21;3.20;99.90
674;DHT22;319;48.764;9.174;2023-01-26T02:59:48;3.20;99.90
674;DHT22;319;48.764;9.174;2023-01-26T03:02:15;3.20;99.90
674;DHT22;319;48.764;9.174;2023-01-26T03:04:42;3.30;99.90
674;DHT22;319;48.764;9.174;2023-01-26T03:07:09;3.30;99.90
674;DHT22;319;48.764;9.174;2023-01-26T03:09:36;3.20;99.90
674;DHT22;319;48.764;9.174;2023-01-26T03:12:03;3.20;99.90
674;DHT22;319;48.764;9.174;2023-01-26T03:14:31;3.30;99.90
674;DHT22;319;48.764;9.174;2023-01-26T03:16:58;3.30;99.90
674;DHT22;319;48.764;9.174;2023-01-26T03:19:25;3.30;99.90
674;DHT22;319;48.764;9.174;2023-01-26T03:22:10;3.30;99.90
674;DHT22;319;48.764;9.174;2023-01-26T03:24:54;3.40;99.90
674;DHT22;319;48.764;9.174;2023-01-26T03:27:41;3.40;99.90
674;DHT22;319;48.764;9.174;2023-01-26T03:30:11;3.50;99.90
674;DHT22;319;48.764;9.174;2023-01-26T03:32:38;3.40;99.90
674;DHT22;319;48.764;9.174;2023-01-26T03:35:07;3.40;99.90
674;DHT22;319;48.764;9.174;2023-01-26T03:37:39;3.40;99.90
674;DHT22;319;48.764;9.174;2023-01-26T03:40:10;3.20;99.90
674;DHT22;319;48.764;9.174;2023-01-26T03:42:51;3.20;99.90
674;DHT22;319;48.764;9.174;2023-01-26T03:45:36;3.20;99.90
674;DHT22;319;48.764;9.174;2023-01-26T03:48:21;3.20;99.90
674;DHT22;319;48.764;9.174;2023-01-26T03:51:05;3.30;99.90
674;DHT22;319;48.764;9.174;2023-01-26T03:53:50;3.30;99.90
674;DHT22;319;48.764;9.174;2023-01-26T03:56:34;3.30;99.90
674;DHT22;319;48.764;9.174;2023-01-26T03:59:04;3.30;99.90
674;DHT22;319;48.764;9.174;2023-01-26T04:01:36;3.30;99.90
674;DHT22;319;48.764;9.174;2023-01-26T04:04:04;3.40;99.90
674;DHT22;319;48.764;9.174;2023-01-26T04:06:49;3.50;99.90
674;DHT22;319;48.764;9.174;2023-01-26T04:09:34;3.50;99.90
674;DHT22;319;48.764;9.174;2023-01-26T04:12:02;3.50;99.90
674;DHT22;319;48.764;9.174;2023-01-26T04:14:29;3.40;99.90
674;DHT22;319;48.764;9.174;2023-01-26T04:17:15;3.40;99.90
674;DHT22;319;48.764;9.174;2023-01-26T04:20:00;3.30;99.90
674;DHT22;319;48.764;9.174;2023-01-26T04:22:45;3.10;99.90
674;DHT22;319;48.764;9.174;2023-01-26T04:25:14;3.20;99.90
674;DHT22;319;48.764;9.174;2023-01-26T04:27:41;3.20;99.90
674;DHT22;319;48.764;9.174;2023-01-26T04:30:10;3.20;99.90
674;DHT22;319;48.764;9.174;2023-01-26T04:32:38;3.30;99.90
674;DHT22;319;48.764;9.174;2023-01-26T04:35:07;3.40;99.90
674;DHT22;319;48.764;9.174;2023-01-26T04:37:34;3.40;99.90
674;DHT22;319;48.764;9.174;2023-01-26T04:40:01;3.40;99.90
674;DHT22;319;48.764;9.174;2023-01-26T04:42:28;3.40;99.90
674;DHT22;319;48.764;9.174;2023-01-26T04:44:55;3.40;99.90
674;DHT22;319;48.764;9.174;2023-01-26T04:47:22;3.40;99.90
674;DHT22;319;48.764;9.174;2023-01-26T04:49:50;3.30;99.90
674;DHT22;319;48.764;9.174;2023-01-26T04:52:17;3.40;99.90
674;DHT22;319;48.764;9.174;2023-01-26T04:54:43;3.30;99.90
674;DHT22;319;48.764;9.174;2023-01-26T04:57:10;3.30;99.90
674;DHT22;319;48.764;9.174;2023-01-26T04:59:37;3.30;99.90
674;DHT22;319;48.764;9.174;2023-01-26T05:02:04;3.20;99.90
674;DHT22;319;48.764;9.174;2023-01-26T05:04:31;3.10;99.90
674;DHT22;319;48.764;9.174;2023-01-26T05:06:59;3.10;99.90
674;DHT22;319;48.764;9.174;2023-01-26T05:09:26;3.20;99.90
674;DHT22;319;48.764;9.174;2023-01-26T05:11:53;3.20;99.90
674;DHT22;319;48.764;9.174;2023-01-26T05:14:39;3.20;99.90
674;DHT22;319;48.764;9.174;2023-01-26T05:17:06;3.20;99.90
674;DHT22;319;48.764;9.174;2023-01-26T05:19:33;3.20;99.90
674;DHT22;319;48.764;9.174;2023-01-26T05:22:01;3.20;99.90
674;DHT22;319;48.764;9.174;2023-01-26T05:24:28;3.20;99.90
674;DHT22;319;48.764;9.174;2023-01-26T05:26:54;3.20;99.90
674;DHT22;319;48.764;9.174;2023-01-26T05:29:41;3.20;99.90
674;DHT22;319;48.764;9.174;2023-01-26T05:32:08;3.20;99.90
674;DHT22;319;48.764;9.174;2023-01-26T05:34:35;3.10;99.90
674;DHT22;319;48.764;9.174;2023-01-26T05:37:03;3.10;99.90
674;DHT22;319;48.764;9.174;2023-01-26T05:39:30;3.10;99.90
674;DHT22;319;48.764;9.174;2023-01-26T05:41:57;3.10;99.90
674;DHT22;319;48.764;9.174;2023-01-26T05:44:24;3.10;99.90
674;DHT22;319;48.764;9.174;2023-01-26T05:46:51;3.20;99.90
674;DHT22;319;48.764;9.174;2023-01-26T05:49:18;3.10;99.90
674;DHT22;319;48.764;9.174;2023-01-26T05:51:45;3.00;99.90
674;DHT22;319;48.764;9.174;2023-01-26T05:54:13;2.90;99.90
674;DHT22;319;48.764;9.174;2023-01-26T05:56:40;2.90;99.90
674;DHT22;319;48.764;9.174;2023-01-26T05:59:06;2.80;99.90
674;DHT22;319;48.764;9.174;2023-01-26T06:01:33;2.80;99.90
674;DHT22;319;48.764;9.174;2023-01-26T06:04:00;2.80;99.90
674;DHT22;319;48.764;9.174;2023-01-26T06:06:27;2.80;99.90
674;DHT22;319;48.764;9.174;2023-01-26T06:08:54;2.70;99.90
674;DHT22;319;48.764;9.174;2023-01-26T06:11:22;2.50;99.90
674;DHT22;319;48.764;9.174;2023-01-26T06:13:49;2.60;99.90
674;DHT22;319;48.764;9.174;2023-01-26T06:16:16;2.60;99.90
674;DHT22;319;48.764;9.174;2023-01-26T06:18:42;2.60;99.90
674;DHT22;319;48.764;9.174;2023-01-26T06:21:12;2.70;99.90
674;DHT22;319;48.764;9.174;2023-01-26T06:23:42;2.60;99.90
674;DHT22;319;48.764;9.174;2023-01-26T06:26:09;2.80;99.90
674;DHT22;319;48.764;9.174;2023-01-26T06:28:38;2.70;99.90
674;DHT22;319;48.764;9.174;2023-01-26T06:31:06;2.80;99.90
674;DHT22;319;48.764;9.174;2023-01-26T06:33:34;2.80;99.90
674;DHT22;319;48.764;9.174;2023-01-26T06:36:02;2.90;99.90
674;DHT22;319;48.764;9.174;2023-01-26T06:38:29;2.90;99.90
674;DHT22;319;48.764;9.174;2023-01-26T06:40:58;2.80;99.90
674;DHT22;319;48.764;9.174;2023-01-26T06:43:27;2.80;99.90
674;DHT22;319;48.764;9.174;2023-01-26T06:45:56;2.70;99.90
674;DHT22;319;48.764;9.174;2023-01-26T06:48:24;2.70;99.90
674;DHT22;319;48.764;9.174;2023-01-26T06:50:51;2.70;99.90
674;DHT22;319;48.764;9.174;2023-01-26T06:53:25;2.80;99.90
674;DHT22;319;48.764;9.174;2023-01-26T06:55:54;2.70;99.90
674;DHT22;319;48.764;9.174;2023-01-26T06:58:21;2.70;99.90
674;DHT22;319;48.764;9.174;2023-01-26T07:00:48;2.60;99.90
674;DHT22;319;48.764;9.174;2023-01-26T07:03:16;2.70;99.90
674;DHT22;319;48.764;9.174;2023-01-26T07:05:43;2.80;99.90
674;DHT22;319;48.764;9.174;2023-01-26T07:08:10;2.80;99.90
674;DHT22;319;48.764;9.174;2023-01-26T07:10:37;2.70;99.90
674;DHT22;319;48.764;9.174;2023-01-26T07:13:04;2.80;99.90
674;DHT22;319;48.764;9.174;2023-01-26T07:15:31;2.80;99.90
674;DHT22;319;48.764;9.174;2023-01-26T07:17:59;2.70;99.90
674;DHT22;319;48.764;9.174;2023-01-26T07:20:28;2.70;99.90
674;DHT22;319;48.764;9.174;2023-01-26T07:22:54;2.70;99.90
674;DHT22;319;48.764;9.174;2023-01-26T07:25:21;2.70;99.90
674;DHT22;319;48.764;9.174;2023-01-26T07:27:48;2.60;99.90
674;DHT22;319;48.764;9.174;2023-01-26T07:30:15;2.60;99.90
674;DHT22;319;48.764;9.174;2023-01-26T07:32:42;2.60;99.90
674;DHT22;319;48.764;9.174;2023-01-26T07:35:09;2.70;99.90
674;DHT22;319;48.764;9.174;2023-01-26T07:37:37;2.60;99.90
674;DHT22;319;48.764;9.174;2023-01-26T07:40:04;2.70;99.90
674;DHT22;319;48.764;9.174;2023-01-26T07:42:31;2.70;99.90
674;DHT22;319;48.764;9.174;2023-01-26T07:44:58;2.80;99.90
674;DHT22;319;48.764;9.174;2023-01-26T07:47:26;2.80;99.90
674;DHT22;319;48.764;9.174;2023-01-26T07:49:53;2.80;99.90
674;DHT22;319;48.764;9.174;2023-01-26T07:52:19;2.80;99.90
674;DHT22;319;48.764;9.174;2023-01-26T07:54:47;2.70;99.90
674;DHT22;319;48.764;9.174;2023-01-26T07:57:16;2.70;99.90
674;DHT22;319;48.764;9.174;2023-01-26T07:59:42;2.70;99.90
674;DHT22;319;48.764;9.174;2023-01-26T08:02:09;2.80;99.90
674;DHT22;319;48.764;9.174;2023-01-26T08:04:36;2.70;99.90
674;DHT22;319;48.764;9.174;2023-01-26T08:07:03;2.60;99.90
674;DHT22;319;48.764;9.174;2023-01-26T08:09:30;2.50;99.90
674;DHT22;319;48.764;9.174;2023-01-26T08:11:58;2.50;99.90
674;DHT22;319;48.764;9.174;2023-01-26T08:14:25;2.60;99.90
674;DHT22;319;48.764;9.174;2023-01-26T08:16:52;2.70;99.90
674;DHT22;319;48.764;9.174;2023-01-26T08:19:19;2.70;99.90
674;DHT22;319;48.764;9.174;2023-01-26T08:21:46;2.80;99.90
674;DHT22;319;48.764;9.174;2023-01-26T08:24:13;2.80;99.90
674;DHT22;319;48.764;9.174;2023-01-26T08:26:39;2.90;99.90
674;DHT22;319;48.764;9.174;2023-01-26T08:29:08;2.80;99.90
674;DHT22;319;48.764;9.174;2023-01-26T08:31:34;2.80;99.90
674;DHT22;319;48.764;9.174;2023-01-26T08:34:01;2.80;99.90
674;DHT22;319;48.764;9.174;2023-01-26T08:36:28;2.80;99.90
674;DHT22;319;48.764;9.174;2023-01-26T08:38:55;2.80;99.90
674;DHT22;319;48.764;9.174;2023-01-26T08:41:22;2.80;99.90
674;DHT22;319;48.764;9.174;2023-01-26T08:43:49;3.10;99.90
674;DHT22;319;48.764;9.174;2023-01-26T08:46:18;3.00;99.90
674;DHT22;319;48.764;9.174;2023-01-26T08:48:47;3.00;99.90
674;DHT22;319;48.764;9.174;2023-01-26T08:51:14;3.00;99.90
674;DHT22;319;48.764;9.174;2023-01-26T08:53:41;3.10;99.90
674;DHT22;319;48.764;9.174;2023-01-26T08:56:10;3.20;99.90
674;DHT22;319;48.764;9.174;2023-01-26T08:58:37;3.20;99.90
674;DHT22;319;48.764;9.174;2023-01-26T09:01:05;3.30;99.90
674;DHT22;319;48.764;9.174;2023-01-26T09:03:33;3.30;99.90
674;DHT22;319;48.764;9.174;2023-01-26T09:06:01;3.20;99.90
674;DHT22;319;48.764;9.174;2023-01-26T09:08:29;3.20;99.90
674;DHT22;319;48.764;9.174;2023-01-26T09:10:56;3.20;99.90
674;DHT22;319;48.764;9.174;2023-01-26T09:13:22;3.10;99.90
674;DHT22;319;48.764;9.174;2023-01-26T09:15:50;3.20;99.90
674;DHT22;319;48.764;9.174;2023-01-26T09:18:16;3.20;99.90
674;DHT22;319;48.764;9.174;2023-01-26T09:20:45;3.30;99.90
674;DHT22;319;48.764;9.174;2023-01-26T09:23:11;3.30;99.90
674;DHT22;319;48.764;9.174;2023-01-26T09:25:40;3.40;99.90
674;DHT22;319;48.764;9.174;2023-01-26T09:28:07;3.40;99.90
674;DHT22;319;48.764;9.174;2023-01-26T09:30:34;3.40;99.90
674;DHT22;319;48.764;9.174;2023-01-26T09:33:02;3.30;99.90
674;DHT22;319;48.764;9.174;2023-01-26T09:35:29;3.10;99.90
674;DHT22;319;48.764;9.174;2023-01-26T09:37:58;3.10;99.90
674;DHT22;319;48.764;9.174;2023-01-26T09:40:29;3.10;99.90
674;DHT22;319;48.764;9.174;2023-01-26T09:43:06;3.00;99.90
674;DHT22;319;48.764;9.174;2023-01-26T09:45:42;3.10;99.90
674;DHT22;319;48.764;9.174;2023-01-26T09:48:20;3.10;99.90
674;DHT22;319;48.764;9.174;2023-01-26T09:50:53;3.00;99.90
674;DHT22;319;48.764;9.174;2023-01-26T09:53:24;3.10;99.90
674;DHT22;319;48.764;9.174;2023-01-26T09:55:53;3.10;99.90
674;DHT22;319;48.764;9.174;2023-01-26T09:58:28;3.20;99.90
674;DHT22;319;48.764;9.174;2023-01-26T10:00:59;3.10;99.90
674;DHT22;319;48.764;9.174;2023-01-26T10:03:32;3.20;99.90
674;DHT22;319;48.764;9.174;2023-01-26T10:06:04;3.20;99.90
674;DHT22;319;48.764;9.174;2023-01-26T10:08:34;3.20;99.90
674;DHT22;319;48.764;9.174;2023-01-26T10:11:04;3.20;99.90
674;DHT22;319;48.764;9.174;2023-01-26T10:13:33;3.20;99.90
674;DHT22;319;48.764;9.174;2023-01-26T10:16:03;3.20;99.90
674;DHT22;319;48.764;9.174;2023-01-26T10:18:34;3.20;99.90
674;DHT22;319;48.764;9.174;2023-01-26T10:21:03;3.20;99.90
674;DHT22;319;48.764;9.174;2023-01-26T10:23:34;3.10;99.90
674;DHT22;319;48.764;9.174;2023-01-26T10:26:10;3.20;99.90
674;DHT22;319;48.764;9.174;2023-01-26T10:28:38;3.00;99.90
674;DHT22;319;48.764;9.174;2023-01-26T10:31:13;3.00;99.90
674;DHT22;319;48.764;9.174;2023-01-26T10:33:46;3.20;99.90
674;DHT22;319;48.764;9.174;2023-01-26T10:36:14;3.10;99.90
674;DHT22;319;48.764;9.174;2023-01-26T10:38:43;3.20;99.90
674;DHT22;319;48.764;9.174;2023-01-26T10:41:22;3.30;99.90
674;DHT22;319;48.764;9.174;2023-01-26T10:43:51;3.30;99.90
674;DHT22;319;48.764;9.174;2023-01-26T10:46:27;3.30;99.90
674;DHT22;319;48.764;9.174;2023-01-26T10:48:56;3.10;99.90
674;DHT22;319;48.764;9.174;2023-01-26T10:51:26;3.00;99.90
674;DHT22;319;48.764;9.174;2023-01-26T10:54:20;3.10;99.90
674;DHT22;319;48.764;9.174;2023-01-26T10:56:51;3.10;99.90
674;DHT22;319;48.764;9.174;2023-01-26T10:59:28;3.10;99.90
674;DHT22;319;48.764;9.174;2023-01-26T11:01:58;3.10;99.90
674;DHT22;319;48.764;9.174;2023-01-26T11:04:26;3.10;99.90
674;DHT22;319;48.764;9.174;2023-01-26T11:06:53;3.20;99.90
674;DHT22;319;48.764;9.174;2023-01-26T11:09:25;3.20;99.90
674;DHT22;319;48.764;9.174;2023-01-26T11:12:00;3.20;99.90
674;DHT22;319;48.764;9.174;2023-01-26T11:14:28;3.20;99.90
674;DHT22;319;48.764;9.174;2023-01-26T11:16:59;3.20;99.90
674;DHT22;319;48.764;9.174;2023-01-26T11:19:41;3.00;99.90
674;DHT22;319;48.764;9.174;2023-01-26T11:22:14;3.00;99.90
674;DHT22;319;48.764;9.174;2023-01-26T11:24:49;3.00;99.90
674;DHT22;319;48.764;9.174;2023-01-26T11:27:26;2.90;99.90
674;DHT22;319;48.764;9.174;2023-01-26T11:33:13;2.90;99.90
674;DHT22;319;48.764;9.174;2023-01-26T11:35:50;2.80;99.90
674;DHT22;319;48.764;9.174;2023-01-26T11:38:25;2.90;99.90
674;DHT22;319;48.764;9.174;2023-01-26T11:41:02;2.70;99.90
674;DHT22;319;48.764;9.174;2023-01-26T11:43:48;2.60;99.90
674;DHT22;319;48.764;9.174;2023-01-26T11:46:27;2.70;99.90
674;DHT22;319;48.764;9.174;2023-01-26T11:49:07;2.80;99.90
674;DHT22;319;48.764;9.174;2023-01-26T11:51:48;2.90;99.90
674;DHT22;319;48.764;9.174;2023-01-26T11:54:32;2.80;99.90
674;DHT22;319;48.764;9.174;2023-01-26T11:57:11;2.90;99.90
674;DHT22;319;48.764;9.174;2023-01-26T11:59:47;2.80;99.90
674;DHT22;319;48.764;9.174;2023-01-26T12:02:24;2.70;99.90
674;DHT22;319;48.764;9.174;2023-01-26T12:04:53;2.80;99.90
674;DHT22;319;48.764;9.174;2023-01-26T12:07:26;2.80;99.90
674;DHT22;319;48.764;9.174;2023-01-26T12:09:54;2.70;99.90
674;DHT22;319;48.764;9.174;2023-01-26T12:12:26;2.70;99.90
674;DHT22;319;48.764;9.174;2023-01-26T12:14:59;2.70;99.90
674;DHT22;319;48.764;9.174;2023-01-26T12:17:33;2.90;99.90
674;DHT22;319;48.764;9.174;2023-01-26T12:20:16;3.00;99.90
674;DHT22;319;48.764;9.174;2023-01-26T12:22:46;3.10;99.90
674;DHT22;319;48.764;9.174;2023-01-26T12:25:22;3.20;99.90
674;DHT22;319;48.764;9.174;2023-01-26T12:27:58;3.30;99.90
674;DHT22;319;48.764;9.174;2023-01-26T12:30:34;3.20;99.90
674;DHT22;319;48.764;9.174;2023-01-26T12:33:02;3.20;99.90
674;DHT22;319;48.764;9.174;2023-01-26T12:35:40;3.10;99.90
674;DHT22;319;48.764;9.174;2023-01-26T12:38:14;3.00;99.90
674;DHT22;319;48.764;9.174;2023-01-26T12:40:51;3.00;99.90
674;DHT22;319;48.764;9.174;2023-01-26T12:43:35;3.00;99.90
674;DHT22;319;48.764;9.174;2023-01-26T12:46:04;2.90;99.90
674;DHT22;319;48.764;9.174;2023-01-26T12:48:37;2.90;99.90
674;DHT22;319;48.764;9.174;2023-01-26T12:51:09;2.80;99.90
674;DHT22;319;48.764;9.174;2023-01-26T12:53:45;2.60;99.90
674;DHT22;319;48.764;9.174;2023-01-26T12:56:20;2.70;99.90
674;DHT22;319;48.764;9.174;2023-01-26T12:58:52;2.70;99.90
674;DHT22;319;48.764;9.174;2023-01-26T13:01:21;2.70;99.90
674;DHT22;319;48.764;9.174;2023-01-26T13:03:52;2.80;99.90
674;DHT22;319;48.764;9.174;2023-01-26T13:06:21;2.70;99.90
674;DHT22;319;48.764;9.174;2023-01-26T13:09:00;2.70;99.90
674;DHT22;319;48.764;9.174;2023-01-26T13:11:46;2.70;99.90
674;DHT22;319;48.764;9.174;2023-01-26T13:14:33;2.70;99.90
674;DHT22;319;48.764;9.174;2023-01-26T13:23:39;2.80;99.90
674;DHT22;319;48.764;9.174;2023-01-26T13:26:23;2.70;99.90
674;DHT22;319;48.764;9.174;2023-01-26T13:28:50;2.50;99.90
674;DHT22;319;48.764;9.174;2023-01-26T13:31:31;2.60;99.90
674;DHT22;319;48.764;9.174;2023-01-26T13:34:00;2.50;99.90
674;DHT22;319;48.764;9.174;2023-01-26T13:36:31;2.60;99.90
674;DHT22;319;48.764;9.174;2023-01-26T13:39:03;2.70;99.90
674;DHT22;319;48.764;9.174;2023-01-26T13:41:30;2.70;99.90
674;DHT22;319;48.764;9.174;2023-01-26T13:44:05;2.80;99.90
674;DHT22;319;48.764;9.174;2023-01-26T13:46:37;2.80;99.90
674;DHT22;319;48.764;9.174;2023-01-26T13:49:22;2.80;99.90
674;DHT22;319;48.764;9.174;2023-01-26T13:51:49;2.80;99.90
674;DHT22;319;48.764;9.174;2023-01-26T13:54:16;2.80;99.90
674;DHT22;319;48.764;9.174;2023-01-26T13:56:59;2.80;99.90
674;DHT22;319;48.764;9.174;2023-01-26T13:59:26;2.80;99.90
674;DHT22;319;48.764;9.174;2023-01-26T14:01:55;2.60;99.90
674;DHT22;319;48.764;9.174;2023-01-26T14:04:23;2.70;99.90
674;DHT22;319;48.764;9.174;2023-01-26T14:06:54;2.70;99.90
674;DHT22;319;48.764;9.174;2023-01-26T14:09:21;2.80;99.90
674;DHT22;319;48.764;9.174;2023-01-26T14:11:55;2.90;99.90
674;DHT22;319;48.764;9.174;2023-01-26T14:14:24;3.00;99.90
674;DHT22;319;48.764;9.174;2023-01-26T14:16:51;2.90;99.90
674;DHT22;319;48.764;9.174;2023-01-26T14:19:21;2.90;99.90
674;DHT22;319;48.764;9.174;2023-01-26T14:21:50;2.80;99.90
674;DHT22;319;48.764;9.174;2023-01-26T14:24:18;2.80;99.90
674;DHT22;319;48.764;9.174;2023-01-26T14:26:49;2.80;99.90
674;DHT22;319;48.764;9.174;2023-01-26T14:29:20;2.80;99.90
674;DHT22;319;48.764;9.174;2023-01-26T14:31:47;2.70;99.90
674;DHT22;319;48.764;9.174;2023-01-26T14:34:20;2.70;99.90
674;DHT22;319;48.764;9.174;2023-01-26T14:36:47;2.70;99.90
674;DHT22;319;48.764;9.174;2023-01-26T14:39:16;2.80;99.90
674;DHT22;319;48.764;9.174;2023-01-26T14:41:44;2.80;99.90
674;DHT22;319;48.764;9.174;2023-01-26T14:44:12;2.90;99.90
674;DHT22;319;48.764;9.174;2023-01-26T14:46:48;2.80;99.90
674;DHT22;319;48.764;9.174;2023-01-26T14:49:20;2.90;99.90
674;DHT22;319;48.764;9.174;2023-01-26T14:51:52;2.80;99.90
674;DHT22;319;48.764;9.174;2023-01-26T14:54:24;2.80;99.90
674;DHT22;319;48.764;9.174;2023-01-26T14:56:53;2.80;99.90
674;DHT22;319;48.764;9.174;2023-01-26T14:59:24;2.90;99.90
674;DHT22;319;48.764;9.174;2023-01-26T15:02:02;2.90;99.90
674;DHT22;319;48.764;9.174;2023-01-26T15:04:35;2.80;99.90
674;DHT22;319;48.764;9.174;2023-01-26T15:10:25;2.90;99.90
674;DHT22;319;48.764;9.174;2023-01-26T15:12:59;2.90;99.90
674;DHT22;319;48.764;9.174;2023-01-26T15:15:28;2.80;99.90
674;DHT22;319;48.764;9.174;2023-01-26T15:18:16;2.80;99.90
674;DHT22;319;48.764;9.174;2023-01-26T15:20:53;2.90;99.90
674;DHT22;319;48.764;9.174;2023-01-26T15:23:29;2.90;99.90
674;DHT22;319;48.764;9.174;2023-01-26T15:26:03;2.90;99.90
674;DHT22;319;48.764;9.174;2023-01-26T15:28:31;3.00;99.90
674;DHT22;319;48.764;9.174;2023-01-26T15:30:58;3.10;99.90
674;DHT22;319;48.764;9.174;2023-01-26T15:33:39;3.10;99.90
674;DHT22;319;48.764;9.174;2023-01-26T15:36:26;3.10;99.90
674;DHT22;319;48.764;9.174;2023-01-26T15:39:00;3.30;99.90
674;DHT22;319;48.764;9.174;2023-01-26T15:41:28;3.00;99.90
674;DHT22;319;48.764;9.174;2023-01-26T15:43:55;3.00;99.90
674;DHT22;319;48.764;9.174;2023-01-26T15:46:22;3.00;99.90
674;DHT22;319;48.764;9.174;2023-01-26T15:48:49;3.30;99.90
674;DHT22;319;48.764;9.174;2023-01-26T15:51:15;2.80;99.90
674;DHT22;319;48.764;9.174;2023-01-26T15:53:44;3.00;99.90
674;DHT22;319;48.764;9.174;2023-01-26T15:56:11;2.90;99.90
674;DHT22;319;48.764;9.174;2023-01-26T15:58:38;3.00;99.90
674;DHT22;319;48.764;9.174;2023-01-26T16:01:05;2.90;99.90
674;DHT22;319;48.764;9.174;2023-01-26T16:03:33;2.90;99.90
674;DHT22;319;48.764;9.174;2023-01-26T16:05:59;2.90;99.90
674;DHT22;319;48.764;9.174;2023-01-26T16:08:26;2.90;99.90
674;DHT22;319;48.764;9.174;2023-01-26T16:10:54;3.00;99.90
674;DHT22;319;48.764;9.174;2023-01-26T16:13:22;3.00;99.90
674;DHT22;319;48.764;9.174;2023-01-26T16:15:50;3.00;99.90
674;DHT22;319;48.764;9.174;2023-01-26T16:18:18;3.00;99.90
674;DHT22;319;48.764;9.174;2023-01-26T16:20:50;2.90;99.90
674;DHT22;319;48.764;9.174;2023-01-26T16:23:19;3.00;99.90
674;DHT22;319;48.764;9.174;2023-01-26T16:25:47;3.00;99.90
674;DHT22;319;48.764;9.174;2023-01-26T16:28:16;3.00;99.90
674;DHT22;319;48.764;9.174;2023-01-26T16:30:44;3.00;99.90
674;DHT22;319;48.764;9.174;2023-01-26T16:33:12;3.00;99.90
674;DHT22;319;48.764;9.174;2023-01-26T16:35:40;3.00;99.90
674;DHT22;319;48.764;9.174;2023-01-26T16:38:07;2.90;99.90
674;DHT22;319;48.764;9.174;2023-01-26T16:40:37;2.90;99.90
674;DHT22;319;48.764;9.174;2023-01-26T16:43:04;2.90;99.90
674;DHT22;319;48.764;9.174;2023-01-26T16:45:38;2.90;99.90
674;DHT22;319;48.764;9.174;2023-01-26T16:48:10;2.80;99.90
674;DHT22;319;48.764;9.174;2023-01-26T16:50:40;3.00;99.90
674;DHT22;319;48.764;9.174;2023-01-26T16:53:17;2.90;99.90
674;DHT22;319;48.764;9.174;2023-01-26T16:55:45;2.90;99.90
674;DHT22;319;48.764;9.174;2023-01-26T16:58:12;2.90;99.90
674;DHT22;319;48.764;9.174;2023-01-26T17:00:40;2.90;99.90
674;DHT22;319;48.764;9.174;2023-01-26T17:03:09;2.90;99.90
674;DHT22;319;48.764;9.174;2023-01-26T17:05:37;2.90;99.90
674;DHT22;319;48.764;9.174;2023-01-26T17:08:05;3.00;99.90
674;DHT22;319;48.764;9.174;2023-01-26T17:10:32;2.80;99.90
674;DHT22;319;48.764;9.174;2023-01-26T17:12:59;2.90;99.90
674;DHT22;319;48.764;9.174;2023-01-26T17:15:26;2.90;99.90
674;DHT22;319;48.764;9.174;2023-01-26T17:17:55;2.80;99.90
674;DHT22;319;48.764;9.174;2023-01-26T17:20:22;2.80;99.90
674;DHT22;319;48.764;9.174;2023-01-26T17:22:49;2.80;99.90
674;DHT22;319;48.764;9.174;2023-01-26T17:25:16;2.80;99.90
674;DHT22;319;48.764;9.174;2023-01-26T17:27:44;2.50;99.90